sensor_id;sensor_type;location;lat;lon;timestamp;P1;durP1;ratioP1;P2;durP2;ratioP2
7375;SDS011;3728;42.266;24.944;2022-12-01T00:01:31;1.67;;;1.57;;
7375;SDS011;3728;42.266;24.944;2022-12-01T00:03:58;1.40;;;1.27;;
7375;SDS011;3728;42.266;24.944;2022-12-01T00:06:26;2.13;;;1.70;;
7375;SDS011;3728;42.266;24.944;2022-12-01T00:08:53;2.10;;;1.90;;
7375;SDS011;3728;42.266;24.944;2022-12-01T00:11:45;1.90;;;1.70;;
7375;SDS011;3728;42.266;24.944;2022-12-01T00:14:13;2.67;;;1.90;;
7375;SDS011;3728;42.266;24.944;2022-12-01T00:16:42;3.37;;;1.90;;
7375;SDS011;3728;42.266;24.944;2022-12-01T00:19:11;1.77;;;1.67;;
7375;SDS011;3728;42.266;24.944;2022-12-01T00:21:38;2.23;;;2.03;;
7375;SDS011;3728;42.266;24.944;2022-12-01T00:24:06;2.20;;;2.00;;
7375;SDS011;3728;42.266;24.944;2022-12-01T00:26:36;1.97;;;1.83;;
7375;SDS011;3728;42.266;24.944;2022-12-01T00:29:04;2.30;;;1.97;;
7375;SDS011;3728;42.266;24.944;2022-12-01T00:31:31;2.53;;;2.03;;
7375;SDS011;3728;42.266;24.944;2022-12-01T00:34:00;2.03;;;1.83;;
7375;SDS011;3728;42.266;24.944;2022-12-01T00:36:34;2.00;;;1.90;;
7375;SDS011;3728;42.266;24.944;2022-12-01T00:39:02;2.20;;;2.00;;
7375;SDS011;3728;42.266;24.944;2022-12-01T00:41:33;2.27;;;1.80;;
7375;SDS011;3728;42.266;24.944;2022-12-01T00:44:01;2.73;;;1.40;;
7375;SDS011;3728;42.266;24.944;2022-12-01T00:46:28;2.33;;;1.33;;
7375;SDS011;3728;42.266;24.944;2022-12-01T00:48:56;1.30;;;1.20;;
7375;SDS011;3728;42.266;24.944;2022-12-01T00:51:23;1.63;;;1.53;;
7375;SDS011;3728;42.266;24.944;2022-12-01T00:53:51;2.50;;;1.50;;
7375;SDS011;3728;42.266;24.944;2022-12-01T00:56:18;1.80;;;1.70;;
7375;SDS011;3728;42.266;24.944;2022-12-01T00:58:46;2.00;;;1.80;;
7375;SDS011;3728;42.266;24.944;2022-12-01T01:01:14;1.70;;;1.60;;
7375;SDS011;3728;42.266;24.944;2022-12-01T01:03:41;1.47;;;1.37;;
7375;SDS011;3728;42.266;24.944;2022-12-01T01:06:09;1.40;;;1.30;;
7375;SDS011;3728;42.266;24.944;2022-12-01T01:08:38;1.23;;;1.20;;
7375;SDS011;3728;42.266;24.944;2022-12-01T01:11:06;1.60;;;1.50;;
7375;SDS011;3728;42.266;24.944;2022-12-01T01:13:34;1.47;;;1.37;;
7375;SDS011;3728;42.266;24.944;2022-12-01T01:16:08;1.37;;;1.30;;
7375;SDS011;3728;42.266;24.944;2022-12-01T01:18:42;1.43;;;1.33;;
7375;SDS011;3728;42.266;24.944;2022-12-01T01:21:11;1.40;;;1.30;;
7375;SDS011;3728;42.266;24.944;2022-12-01T01:23:41;1.37;;;1.27;;
7375;SDS011;3728;42.266;24.944;2022-12-01T01:26:14;1.10;;;1.10;;
7375;SDS011;3728;42.266;24.944;2022-12-01T01:28:46;1.10;;;1.10;;
7375;SDS011;3728;42.266;24.944;2022-12-01T01:31:15;1.47;;;1.37;;
7375;SDS011;3728;42.266;24.944;2022-12-01T01:33:48;2.20;;;1.40;;
7375;SDS011;3728;42.266;24.944;2022-12-01T01:36:16;1.40;;;1.30;;
7375;SDS011;3728;42.266;24.944;2022-12-01T01:38:45;1.83;;;1.20;;
7375;SDS011;3728;42.266;24.944;2022-12-01T01:41:13;2.43;;;1.40;;
7375;SDS011;3728;42.266;24.944;2022-12-01T01:46:22;1.53;;;1.03;;
7375;SDS011;3728;42.266;24.944;2022-12-01T01:51:38;1.30;;;1.17;;
7375;SDS011;3728;42.266;24.944;2022-12-01T01:54:22;1.30;;;1.20;;
7375;SDS011;3728;42.266;24.944;2022-12-01T01:57:00;3.37;;;1.27;;
7375;SDS011;3728;42.266;24.944;2022-12-01T01:59:28;1.87;;;1.00;;
7375;SDS011;3728;42.266;24.944;2022-12-01T02:02:04;1.47;;;1.10;;
7375;SDS011;3728;42.266;24.944;2022-12-01T02:04:35;1.63;;;1.33;;
7375;SDS011;3728;42.266;24.944;2022-12-01T02:07:11;1.40;;;1.30;;
7375;SDS011;3728;42.266;24.944;2022-12-01T02:09:43;1.17;;;1.10;;
7375;SDS011;3728;42.266;24.944;2022-12-01T02:27:13;3.77;;;1.13;;
7375;SDS011;3728;42.266;24.944;2022-12-01T02:30:02;1.63;;;1.40;;
7375;SDS011;3728;42.266;24.944;2022-12-01T02:33:07;1.60;;;1.50;;
7375;SDS011;3728;42.266;24.944;2022-12-01T02:38:39;1.93;;;1.83;;
7375;SDS011;3728;42.266;24.944;2022-12-01T02:41:38;1.50;;;1.40;;
7375;SDS011;3728;42.266;24.944;2022-12-01T02:44:27;2.50;;;2.23;;
7375;SDS011;3728;42.266;24.944;2022-12-01T02:47:14;2.70;;;2.50;;
7375;SDS011;3728;42.266;24.944;2022-12-01T02:49:46;4.53;;;4.13;;
7375;SDS011;3728;42.266;24.944;2022-12-01T02:52:17;5.67;;;5.07;;
7375;SDS011;3728;42.266;24.944;2022-12-01T02:54:48;5.73;;;4.33;;
7375;SDS011;3728;42.266;24.944;2022-12-01T02:57:16;4.83;;;4.20;;
7375;SDS011;3728;42.266;24.944;2022-12-01T02:59:45;3.97;;;3.00;;
7375;SDS011;3728;42.266;24.944;2022-12-01T03:02:34;4.07;;;3.70;;
7375;SDS011;3728;42.266;24.944;2022-12-01T03:05:25;3.53;;;2.70;;
7375;SDS011;3728;42.266;24.944;2022-12-01T03:10:51;4.80;;;4.37;;
7375;SDS011;3728;42.266;24.944;2022-12-01T03:18:38;8.50;;;4.97;;
7375;SDS011;3728;42.266;24.944;2022-12-01T03:23:58;8.67;;;4.87;;
7375;SDS011;3728;42.266;24.944;2022-12-01T03:26:31;6.93;;;4.83;;
7375;SDS011;3728;42.266;24.944;2022-12-01T03:29:04;4.37;;;3.60;;
7375;SDS011;3728;42.266;24.944;2022-12-01T03:31:44;3.70;;;3.40;;
7375;SDS011;3728;42.266;24.944;2022-12-01T03:37:03;4.13;;;3.33;;
7375;SDS011;3728;42.266;24.944;2022-12-01T03:39:47;3.67;;;3.03;;
7375;SDS011;3728;42.266;24.944;2022-12-01T03:42:23;6.30;;;3.20;;
7375;SDS011;3728;42.266;24.944;2022-12-01T03:45:17;2.97;;;2.67;;
7375;SDS011;3728;42.266;24.944;2022-12-01T03:47:52;2.57;;;2.37;;
7375;SDS011;3728;42.266;24.944;2022-12-01T03:50:20;3.70;;;3.00;;
7375;SDS011;3728;42.266;24.944;2022-12-01T03:53:05;3.03;;;2.73;;
7375;SDS011;3728;42.266;24.944;2022-12-01T03:55:45;4.60;;;3.43;;
7375;SDS011;3728;42.266;24.944;2022-12-01T03:58:26;5.87;;;3.43;;
7375;SDS011;3728;42.266;24.944;2022-12-01T04:01:01;6.50;;;4.63;;
7375;SDS011;3728;42.266;24.944;2022-12-01T04:03:30;5.27;;;4.20;;
7375;SDS011;3728;42.266;24.944;2022-12-01T04:05:58;3.77;;;3.37;;
7375;SDS011;3728;42.266;24.944;2022-12-01T04:08:26;3.80;;;3.23;;
7375;SDS011;3728;42.266;24.944;2022-12-01T04:10:56;4.30;;;3.00;;
7375;SDS011;3728;42.266;24.944;2022-12-01T04:13:23;7.97;;;5.47;;
7375;SDS011;3728;42.266;24.944;2022-12-01T04:15:52;15.87;;;7.60;;
7375;SDS011;3728;42.266;24.944;2022-12-01T04:18:20;6.87;;;4.57;;
7375;SDS011;3728;42.266;24.944;2022-12-01T04:20:48;13.93;;;7.83;;
7375;SDS011;3728;42.266;24.944;2022-12-01T04:23:16;14.97;;;9.03;;
7375;SDS011;3728;42.266;24.944;2022-12-01T04:26:03;8.60;;;5.00;;
7375;SDS011;3728;42.266;24.944;2022-12-01T04:28:36;5.93;;;4.13;;
7375;SDS011;3728;42.266;24.944;2022-12-01T04:31:04;6.23;;;4.57;;
7375;SDS011;3728;42.266;24.944;2022-12-01T04:33:31;7.63;;;4.90;;
7375;SDS011;3728;42.266;24.944;2022-12-01T04:35:59;10.37;;;7.40;;
7375;SDS011;3728;42.266;24.944;2022-12-01T04:38:27;5.93;;;5.33;;
7375;SDS011;3728;42.266;24.944;2022-12-01T04:40:56;5.60;;;5.03;;
7375;SDS011;3728;42.266;24.944;2022-12-01T04:43:24;13.97;;;9.80;;
7375;SDS011;3728;42.266;24.944;2022-12-01T04:45:51;37.13;;;22.27;;
7375;SDS011;3728;42.266;24.944;2022-12-01T04:48:19;21.77;;;13.10;;
7375;SDS011;3728;42.266;24.944;2022-12-01T04:50:47;9.77;;;7.50;;
7375;SDS011;3728;42.266;24.944;2022-12-01T04:53:15;12.07;;;7.87;;
7375;SDS011;3728;42.266;24.944;2022-12-01T04:55:43;34.43;;;15.03;;
7375;SDS011;3728;42.266;24.944;2022-12-01T04:58:10;14.23;;;7.70;;
7375;SDS011;3728;42.266;24.944;2022-12-01T05:00:38;15.13;;;8.23;;
7375;SDS011;3728;42.266;24.944;2022-12-01T05:03:06;11.10;;;6.27;;
7375;SDS011;3728;42.266;24.944;2022-12-01T05:05:40;8.93;;;5.97;;
7375;SDS011;3728;42.266;24.944;2022-12-01T05:08:07;5.60;;;4.40;;
7375;SDS011;3728;42.266;24.944;2022-12-01T05:10:37;7.03;;;5.83;;
7375;SDS011;3728;42.266;24.944;2022-12-01T05:13:05;6.67;;;5.07;;
7375;SDS011;3728;42.266;24.944;2022-12-01T05:15:32;7.10;;;6.03;;
7375;SDS011;3728;42.266;24.944;2022-12-01T05:18:00;11.53;;;9.43;;
7375;SDS011;3728;42.266;24.944;2022-12-01T05:20:27;20.17;;;14.37;;
7375;SDS011;3728;42.266;24.944;2022-12-01T05:23:13;12.23;;;10.30;;
7375;SDS011;3728;42.266;24.944;2022-12-01T05:25:42;11.50;;;9.40;;
7375;SDS011;3728;42.266;24.944;2022-12-01T05:28:10;10.77;;;9.40;;
7375;SDS011;3728;42.266;24.944;2022-12-01T05:30:37;9.27;;;7.73;;
7375;SDS011;3728;42.266;24.944;2022-12-01T05:33:06;10.10;;;9.10;;
7375;SDS011;3728;42.266;24.944;2022-12-01T05:35:33;10.43;;;9.50;;
7375;SDS011;3728;42.266;24.944;2022-12-01T05:38:02;9.73;;;8.77;;
7375;SDS011;3728;42.266;24.944;2022-12-01T05:40:34;11.83;;;7.23;;
7375;SDS011;3728;42.266;24.944;2022-12-01T05:43:02;8.13;;;6.60;;
7375;SDS011;3728;42.266;24.944;2022-12-01T05:45:31;6.30;;;5.67;;
7375;SDS011;3728;42.266;24.944;2022-12-01T05:48:00;7.97;;;6.60;;
7375;SDS011;3728;42.266;24.944;2022-12-01T05:50:28;11.27;;;6.63;;
7375;SDS011;3728;42.266;24.944;2022-12-01T05:52:56;9.60;;;6.57;;
7375;SDS011;3728;42.266;24.944;2022-12-01T05:55:24;16.03;;;11.40;;
7375;SDS011;3728;42.266;24.944;2022-12-01T05:57:51;17.87;;;11.10;;
7375;SDS011;3728;42.266;24.944;2022-12-01T06:00:19;14.63;;;11.27;;
7375;SDS011;3728;42.266;24.944;2022-12-01T06:02:47;10.47;;;8.03;;
7375;SDS011;3728;42.266;24.944;2022-12-01T06:05:14;9.70;;;8.07;;
7375;SDS011;3728;42.266;24.944;2022-12-01T06:07:42;10.50;;;8.03;;
7375;SDS011;3728;42.266;24.944;2022-12-01T06:10:10;16.23;;;11.83;;
7375;SDS011;3728;42.266;24.944;2022-12-01T06:12:38;16.17;;;12.10;;
7375;SDS011;3728;42.266;24.944;2022-12-01T06:15:06;11.20;;;8.70;;
7375;SDS011;3728;42.266;24.944;2022-12-01T06:17:34;12.47;;;8.43;;
7375;SDS011;3728;42.266;24.944;2022-12-01T06:20:06;12.97;;;8.67;;
7375;SDS011;3728;42.266;24.944;2022-12-01T06:22:35;17.30;;;11.10;;
7375;SDS011;3728;42.266;24.944;2022-12-01T06:25:02;23.73;;;17.10;;
7375;SDS011;3728;42.266;24.944;2022-12-01T06:27:30;53.67;;;35.67;;
7375;SDS011;3728;42.266;24.944;2022-12-01T06:30:00;54.27;;;36.17;;
7375;SDS011;3728;42.266;24.944;2022-12-01T06:32:29;28.53;;;20.43;;
7375;SDS011;3728;42.266;24.944;2022-12-01T06:34:57;31.80;;;18.37;;
7375;SDS011;3728;42.266;24.944;2022-12-01T06:37:25;15.00;;;10.80;;
7375;SDS011;3728;42.266;24.944;2022-12-01T06:39:54;12.97;;;10.63;;
7375;SDS011;3728;42.266;24.944;2022-12-01T06:47:36;13.60;;;9.23;;
7375;SDS011;3728;42.266;24.944;2022-12-01T06:50:04;13.37;;;7.87;;
7375;SDS011;3728;42.266;24.944;2022-12-01T06:52:34;10.00;;;8.00;;
7375;SDS011;3728;42.266;24.944;2022-12-01T06:55:03;10.40;;;6.87;;
7375;SDS011;3728;42.266;24.944;2022-12-01T06:57:32;16.67;;;8.03;;
7375;SDS011;3728;42.266;24.944;2022-12-01T07:00:00;9.70;;;6.30;;
7375;SDS011;3728;42.266;24.944;2022-12-01T07:02:29;11.07;;;7.07;;
7375;SDS011;3728;42.266;24.944;2022-12-01T07:04:57;13.57;;;8.83;;
7375;SDS011;3728;42.266;24.944;2022-12-01T07:07:24;9.00;;;7.23;;
7375;SDS011;3728;42.266;24.944;2022-12-01T07:09:52;8.13;;;6.97;;
7375;SDS011;3728;42.266;24.944;2022-12-01T07:12:20;9.93;;;8.37;;
7375;SDS011;3728;42.266;24.944;2022-12-01T07:14:47;8.03;;;6.50;;
7375;SDS011;3728;42.266;24.944;2022-12-01T07:17:15;8.37;;;6.43;;
7375;SDS011;3728;42.266;24.944;2022-12-01T07:19:42;8.67;;;7.70;;
7375;SDS011;3728;42.266;24.944;2022-12-01T07:22:10;80.63;;;52.37;;
7375;SDS011;3728;42.266;24.944;2022-12-01T07:24:37;64.23;;;43.50;;
7375;SDS011;3728;42.266;24.944;2022-12-01T07:27:05;17.83;;;14.60;;
7375;SDS011;3728;42.266;24.944;2022-12-01T07:29:32;17.77;;;13.60;;
7375;SDS011;3728;42.266;24.944;2022-12-01T07:32:00;19.63;;;15.43;;
7375;SDS011;3728;42.266;24.944;2022-12-01T07:34:27;34.77;;;28.27;;
7375;SDS011;3728;42.266;24.944;2022-12-01T07:36:55;11.93;;;9.83;;
7375;SDS011;3728;42.266;24.944;2022-12-01T07:39:22;14.57;;;9.93;;
7375;SDS011;3728;42.266;24.944;2022-12-01T07:41:50;15.30;;;9.67;;
7375;SDS011;3728;42.266;24.944;2022-12-01T07:44:18;12.30;;;8.37;;
7375;SDS011;3728;42.266;24.944;2022-12-01T07:46:45;5.07;;;4.27;;
7375;SDS011;3728;42.266;24.944;2022-12-01T07:49:13;4.83;;;4.33;;
7375;SDS011;3728;42.266;24.944;2022-12-01T07:51:41;4.90;;;4.23;;
7375;SDS011;3728;42.266;24.944;2022-12-01T07:54:09;6.10;;;4.63;;
7375;SDS011;3728;42.266;24.944;2022-12-01T07:56:39;5.00;;;3.17;;
7375;SDS011;3728;42.266;24.944;2022-12-01T07:59:07;3.13;;;2.47;;
7375;SDS011;3728;42.266;24.944;2022-12-01T08:01:35;5.90;;;2.93;;
7375;SDS011;3728;42.266;24.944;2022-12-01T08:04:09;3.43;;;2.97;;
7375;SDS011;3728;42.266;24.944;2022-12-01T08:06:37;2.47;;;2.03;;
7375;SDS011;3728;42.266;24.944;2022-12-01T08:09:05;2.67;;;2.23;;
7375;SDS011;3728;42.266;24.944;2022-12-01T08:11:32;2.40;;;1.97;;
7375;SDS011;3728;42.266;24.944;2022-12-01T08:14:01;1.93;;;1.83;;
7375;SDS011;3728;42.266;24.944;2022-12-01T08:16:29;2.43;;;1.60;;
7375;SDS011;3728;42.266;24.944;2022-12-01T08:18:56;4.63;;;2.10;;
7375;SDS011;3728;42.266;24.944;2022-12-01T08:21:24;3.07;;;2.30;;
7375;SDS011;3728;42.266;24.944;2022-12-01T08:23:55;3.03;;;2.20;;
7375;SDS011;3728;42.266;24.944;2022-12-01T08:26:24;1.47;;;1.37;;
7375;SDS011;3728;42.266;24.944;2022-12-01T08:28:53;2.70;;;1.57;;
7375;SDS011;3728;42.266;24.944;2022-12-01T08:31:31;1.17;;;1.07;;
7375;SDS011;3728;42.266;24.944;2022-12-01T08:34:06;1.30;;;1.20;;
7375;SDS011;3728;42.266;24.944;2022-12-01T08:36:37;1.23;;;1.20;;
7375;SDS011;3728;42.266;24.944;2022-12-01T08:39:05;1.43;;;1.33;;
7375;SDS011;3728;42.266;24.944;2022-12-01T08:41:34;1.40;;;1.30;;
7375;SDS011;3728;42.266;24.944;2022-12-01T08:44:02;1.40;;;1.30;;
7375;SDS011;3728;42.266;24.944;2022-12-01T08:46:30;0.90;;;0.90;;
7375;SDS011;3728;42.266;24.944;2022-12-01T08:49:01;1.00;;;0.97;;
7375;SDS011;3728;42.266;24.944;2022-12-01T08:51:31;1.00;;;0.90;;
7375;SDS011;3728;42.266;24.944;2022-12-01T08:53:59;1.10;;;1.10;;
7375;SDS011;3728;42.266;24.944;2022-12-01T08:56:28;0.80;;;0.80;;
7375;SDS011;3728;42.266;24.944;2022-12-01T08:59:08;0.80;;;0.80;;
7375;SDS011;3728;42.266;24.944;2022-12-01T09:01:35;0.60;;;0.60;;
7375;SDS011;3728;42.266;24.944;2022-12-01T09:04:20;0.80;;;0.80;;
7375;SDS011;3728;42.266;24.944;2022-12-01T09:06:50;0.70;;;0.70;;
7375;SDS011;3728;42.266;24.944;2022-12-01T09:09:21;0.73;;;0.73;;
7375;SDS011;3728;42.266;24.944;2022-12-01T09:11:54;0.77;;;0.77;;
7375;SDS011;3728;42.266;24.944;2022-12-01T09:14:22;0.80;;;0.80;;
7375;SDS011;3728;42.266;24.944;2022-12-01T09:16:50;0.60;;;0.50;;
7375;SDS011;3728;42.266;24.944;2022-12-01T09:19:18;0.50;;;0.50;;
7375;SDS011;3728;42.266;24.944;2022-12-01T09:21:50;1.17;;;0.90;;
7375;SDS011;3728;42.266;24.944;2022-12-01T09:24:19;1.77;;;1.50;;
7375;SDS011;3728;42.266;24.944;2022-12-01T09:26:53;2.13;;;2.00;;
7375;SDS011;3728;42.266;24.944;2022-12-01T09:29:22;3.50;;;3.20;;
7375;SDS011;3728;42.266;24.944;2022-12-01T09:31:53;1.30;;;1.17;;
7375;SDS011;3728;42.266;24.944;2022-12-01T09:34:22;1.77;;;1.67;;
7375;SDS011;3728;42.266;24.944;2022-12-01T09:36:54;1.20;;;1.20;;
7375;SDS011;3728;42.266;24.944;2022-12-01T09:39:24;0.83;;;0.83;;
7375;SDS011;3728;42.266;24.944;2022-12-01T09:41:53;1.33;;;1.23;;
7375;SDS011;3728;42.266;24.944;2022-12-01T09:47:11;1.03;;;1.03;;
7375;SDS011;3728;42.266;24.944;2022-12-01T09:50:03;0.93;;;0.80;;
7375;SDS011;3728;42.266;24.944;2022-12-01T09:52:45;1.37;;;1.00;;
7375;SDS011;3728;42.266;24.944;2022-12-01T09:55:20;1.13;;;1.00;;
7375;SDS011;3728;42.266;24.944;2022-12-01T09:57:56;1.23;;;1.23;;
7375;SDS011;3728;42.266;24.944;2022-12-01T10:00:30;1.37;;;0.90;;
7375;SDS011;3728;42.266;24.944;2022-12-01T10:03:23;1.10;;;1.00;;
7375;SDS011;3728;42.266;24.944;2022-12-01T10:06:08;1.13;;;1.00;;
7375;SDS011;3728;42.266;24.944;2022-12-01T10:11:43;1.03;;;1.00;;
7375;SDS011;3728;42.266;24.944;2022-12-01T10:14:14;1.13;;;1.00;;
7375;SDS011;3728;42.266;24.944;2022-12-01T10:31:05;1.87;;;1.43;;
7375;SDS011;3728;42.266;24.944;2022-12-01T10:33:47;1.67;;;1.27;;
7375;SDS011;3728;42.266;24.944;2022-12-01T10:36:33;1.10;;;1.00;;
7375;SDS011;3728;42.266;24.944;2022-12-01T10:39:02;1.43;;;1.30;;
7375;SDS011;3728;42.266;24.944;2022-12-01T10:41:32;1.00;;;0.90;;
7375;SDS011;3728;42.266;24.944;2022-12-01T10:44:03;0.87;;;0.87;;
7375;SDS011;3728;42.266;24.944;2022-12-01T10:49:46;1.57;;;1.40;;
7375;SDS011;3728;42.266;24.944;2022-12-01T10:55:00;1.60;;;1.50;;
7375;SDS011;3728;42.266;24.944;2022-12-01T10:57:53;1.00;;;1.00;;
7375;SDS011;3728;42.266;24.944;2022-12-01T11:00:27;1.67;;;1.30;;
7375;SDS011;3728;42.266;24.944;2022-12-01T11:03:26;1.40;;;1.30;;
7375;SDS011;3728;42.266;24.944;2022-12-01T11:06:02;2.50;;;1.83;;
7375;SDS011;3728;42.266;24.944;2022-12-01T11:11:30;2.50;;;1.57;;
7375;SDS011;3728;42.266;24.944;2022-12-01T11:14:05;3.27;;;1.43;;
7375;SDS011;3728;42.266;24.944;2022-12-01T11:16:48;1.60;;;1.50;;
7375;SDS011;3728;42.266;24.944;2022-12-01T11:19:29;1.60;;;1.50;;
7375;SDS011;3728;42.266;24.944;2022-12-01T11:22:01;3.97;;;1.40;;
7375;SDS011;3728;42.266;24.944;2022-12-01T11:25:08;3.17;;;1.50;;
7375;SDS011;3728;42.266;24.944;2022-12-01T11:27:49;1.50;;;1.40;;
7375;SDS011;3728;42.266;24.944;2022-12-01T11:30:21;3.13;;;1.40;;
7375;SDS011;3728;42.266;24.944;2022-12-01T11:32:53;2.37;;;1.73;;
7375;SDS011;3728;42.266;24.944;2022-12-01T11:35:25;2.33;;;1.73;;
7375;SDS011;3728;42.266;24.944;2022-12-01T11:37:57;2.13;;;1.47;;
7375;SDS011;3728;42.266;24.944;2022-12-01T11:40:52;1.97;;;1.60;;
7375;SDS011;3728;42.266;24.944;2022-12-01T11:43:31;2.43;;;2.10;;
7375;SDS011;3728;42.266;24.944;2022-12-01T11:46:03;4.03;;;2.33;;
7375;SDS011;3728;42.266;24.944;2022-12-01T11:48:34;3.30;;;1.87;;
7375;SDS011;3728;42.266;24.944;2022-12-01T11:54:11;2.73;;;2.07;;
7375;SDS011;3728;42.266;24.944;2022-12-01T11:56:44;2.20;;;2.00;;
7375;SDS011;3728;42.266;24.944;2022-12-01T11:59:34;2.10;;;1.80;;
7375;SDS011;3728;42.266;24.944;2022-12-01T12:20:05;1.53;;;1.37;;
7375;SDS011;3728;42.266;24.944;2022-12-01T12:25:50;3.93;;;1.40;;
7375;SDS011;3728;42.266;24.944;2022-12-01T12:37:19;2.03;;;1.90;;
7375;SDS011;3728;42.266;24.944;2022-12-01T12:46:10;2.50;;;1.40;;
7375;SDS011;3728;42.266;24.944;2022-12-01T12:49:14;1.43;;;1.33;;
7375;SDS011;3728;42.266;24.944;2022-12-01T12:58:24;1.23;;;1.13;;
7375;SDS011;3728;42.266;24.944;2022-12-01T13:01:14;5.43;;;1.50;;
7375;SDS011;3728;42.266;24.944;2022-12-01T13:03:57;0.80;;;0.80;;
7375;SDS011;3728;42.266;24.944;2022-12-01T13:06:39;2.77;;;1.10;;
7375;SDS011;3728;42.266;24.944;2022-12-01T13:09:27;1.10;;;1.00;;
7375;SDS011;3728;42.266;24.944;2022-12-01T13:12:12;1.57;;;0.90;;
7375;SDS011;3728;42.266;24.944;2022-12-01T13:14:52;2.30;;;1.20;;
7375;SDS011;3728;42.266;24.944;2022-12-01T13:17:28;2.80;;;1.20;;
7375;SDS011;3728;42.266;24.944;2022-12-01T13:20:03;1.93;;;1.53;;
7375;SDS011;3728;42.266;24.944;2022-12-01T13:22:33;1.00;;;0.97;;
7375;SDS011;3728;42.266;24.944;2022-12-01T13:25:03;2.20;;;1.67;;
7375;SDS011;3728;42.266;24.944;2022-12-01T13:27:33;2.93;;;1.50;;
7375;SDS011;3728;42.266;24.944;2022-12-01T13:30:06;1.43;;;1.30;;
7375;SDS011;3728;42.266;24.944;2022-12-01T13:32:46;11.03;;;6.57;;
7375;SDS011;3728;42.266;24.944;2022-12-01T13:35:24;4.90;;;4.07;;
7375;SDS011;3728;42.266;24.944;2022-12-01T13:38:25;2.80;;;2.50;;
7375;SDS011;3728;42.266;24.944;2022-12-01T13:44:21;1.40;;;1.30;;
7375;SDS011;3728;42.266;24.944;2022-12-01T13:52:15;0.90;;;0.90;;
7375;SDS011;3728;42.266;24.944;2022-12-01T13:55:03;2.00;;;1.20;;
7375;SDS011;3728;42.266;24.944;2022-12-01T14:00:28;1.53;;;1.43;;
7375;SDS011;3728;42.266;24.944;2022-12-01T14:05:53;1.30;;;1.13;;
7375;SDS011;3728;42.266;24.944;2022-12-01T14:08:44;2.30;;;1.30;;
7375;SDS011;3728;42.266;24.944;2022-12-01T14:13:49;2.60;;;1.90;;
7375;SDS011;3728;42.266;24.944;2022-12-01T14:16:43;1.50;;;1.40;;
7375;SDS011;3728;42.266;24.944;2022-12-01T14:22:13;1.20;;;1.10;;
7375;SDS011;3728;42.266;24.944;2022-12-01T14:27:46;1.27;;;1.17;;
7375;SDS011;3728;42.266;24.944;2022-12-01T14:36:09;1.20;;;1.03;;
7375;SDS011;3728;42.266;24.944;2022-12-01T14:38:59;1.53;;;0.90;;
7375;SDS011;3728;42.266;24.944;2022-12-01T14:41:59;1.23;;;1.17;;
7375;SDS011;3728;42.266;24.944;2022-12-01T14:44:48;1.60;;;1.50;;
7375;SDS011;3728;42.266;24.944;2022-12-01T14:47:21;1.63;;;1.53;;
7375;SDS011;3728;42.266;24.944;2022-12-01T14:50:06;1.40;;;1.30;;
7375;SDS011;3728;42.266;24.944;2022-12-01T14:52:54;2.27;;;1.73;;
7375;SDS011;3728;42.266;24.944;2022-12-01T14:55:34;2.23;;;1.47;;
7375;SDS011;3728;42.266;24.944;2022-12-01T14:58:13;1.47;;;1.37;;
7375;SDS011;3728;42.266;24.944;2022-12-01T15:00:59;3.53;;;2.50;;
7375;SDS011;3728;42.266;24.944;2022-12-01T15:03:35;2.17;;;1.80;;
7375;SDS011;3728;42.266;24.944;2022-12-01T15:06:27;2.63;;;1.80;;
7375;SDS011;3728;42.266;24.944;2022-12-01T15:09:06;1.70;;;1.40;;
7375;SDS011;3728;42.266;24.944;2022-12-01T15:12:01;1.23;;;1.20;;
7375;SDS011;3728;42.266;24.944;2022-12-01T15:14:36;2.30;;;1.50;;
7375;SDS011;3728;42.266;24.944;2022-12-01T15:17:27;2.10;;;1.90;;
7375;SDS011;3728;42.266;24.944;2022-12-01T15:19:57;2.60;;;1.80;;
7375;SDS011;3728;42.266;24.944;2022-12-01T15:22:27;2.53;;;1.80;;
7375;SDS011;3728;42.266;24.944;2022-12-01T15:25:11;2.07;;;1.80;;
7375;SDS011;3728;42.266;24.944;2022-12-01T15:27:41;2.00;;;1.87;;
7375;SDS011;3728;42.266;24.944;2022-12-01T15:30:12;2.10;;;1.90;;
7375;SDS011;3728;42.266;24.944;2022-12-01T15:32:43;2.07;;;1.87;;
7375;SDS011;3728;42.266;24.944;2022-12-01T15:35:20;2.23;;;2.03;;
7375;SDS011;3728;42.266;24.944;2022-12-01T15:37:49;2.30;;;2.10;;
7375;SDS011;3728;42.266;24.944;2022-12-01T15:40:23;2.37;;;1.90;;
7375;SDS011;3728;42.266;24.944;2022-12-01T15:43:23;2.57;;;1.73;;
7375;SDS011;3728;42.266;24.944;2022-12-01T15:48:41;4.13;;;1.90;;
7375;SDS011;3728;42.266;24.944;2022-12-01T15:51:15;3.07;;;1.67;;
7375;SDS011;3728;42.266;24.944;2022-12-01T15:54:00;3.00;;;2.07;;
7375;SDS011;3728;42.266;24.944;2022-12-01T15:56:36;2.10;;;1.90;;
7375;SDS011;3728;42.266;24.944;2022-12-01T16:01:39;1.90;;;1.67;;
7375;SDS011;3728;42.266;24.944;2022-12-01T16:04:17;1.90;;;1.67;;
7375;SDS011;3728;42.266;24.944;2022-12-01T16:06:54;1.77;;;1.67;;
7375;SDS011;3728;42.266;24.944;2022-12-01T16:17:48;2.30;;;2.10;;
7375;SDS011;3728;42.266;24.944;2022-12-01T16:20:22;4.43;;;2.63;;
7375;SDS011;3728;42.266;24.944;2022-12-01T16:23:10;3.07;;;2.40;;
7375;SDS011;3728;42.266;24.944;2022-12-01T16:25:48;3.03;;;2.50;;
7375;SDS011;3728;42.266;24.944;2022-12-01T16:28:32;2.63;;;2.30;;
7375;SDS011;3728;42.266;24.944;2022-12-01T16:31:02;3.27;;;2.10;;
7375;SDS011;3728;42.266;24.944;2022-12-01T16:33:42;3.53;;;2.47;;
7375;SDS011;3728;42.266;24.944;2022-12-01T16:36:11;2.20;;;2.00;;
7375;SDS011;3728;42.266;24.944;2022-12-01T16:38:42;99.93;;;54.47;;
7375;SDS011;3728;42.266;24.944;2022-12-01T16:41:26;51.23;;;29.60;;
7375;SDS011;3728;42.266;24.944;2022-12-01T16:44:04;7.47;;;4.70;;
7375;SDS011;3728;42.266;24.944;2022-12-01T16:46:55;7.40;;;5.70;;
7375;SDS011;3728;42.266;24.944;2022-12-01T16:49:23;2.23;;;1.90;;
7375;SDS011;3728;42.266;24.944;2022-12-01T16:51:53;5.43;;;4.00;;
7375;SDS011;3728;42.266;24.944;2022-12-01T16:54:26;7.70;;;5.40;;
7375;SDS011;3728;42.266;24.944;2022-12-01T16:56:54;1.10;;;1.00;;
7375;SDS011;3728;42.266;24.944;2022-12-01T16:59:23;1.07;;;1.07;;
7375;SDS011;3728;42.266;24.944;2022-12-01T17:01:51;2.33;;;1.80;;
7375;SDS011;3728;42.266;24.944;2022-12-01T17:04:19;1.07;;;0.70;;
7375;SDS011;3728;42.266;24.944;2022-12-01T17:06:46;0.70;;;0.70;;
7375;SDS011;3728;42.266;24.944;2022-12-01T17:09:15;0.87;;;0.80;;
7375;SDS011;3728;42.266;24.944;2022-12-01T17:11:45;0.60;;;0.60;;
7375;SDS011;3728;42.266;24.944;2022-12-01T17:14:13;12.43;;;11.13;;
7375;SDS011;3728;42.266;24.944;2022-12-01T17:17:02;10.67;;;7.77;;
7375;SDS011;3728;42.266;24.944;2022-12-01T17:19:31;7.53;;;5.53;;
7375;SDS011;3728;42.266;24.944;2022-12-01T17:22:01;5.67;;;4.67;;
7375;SDS011;3728;42.266;24.944;2022-12-01T17:24:29;29.20;;;19.20;;
7375;SDS011;3728;42.266;24.944;2022-12-01T17:26:57;24.67;;;15.37;;
7375;SDS011;3728;42.266;24.944;2022-12-01T17:29:36;23.10;;;16.33;;
7375;SDS011;3728;42.266;24.944;2022-12-01T17:32:11;7.30;;;5.53;;
7375;SDS011;3728;42.266;24.944;2022-12-01T17:34:44;33.00;;;21.20;;
7375;SDS011;3728;42.266;24.944;2022-12-01T17:37:15;7.37;;;5.87;;
7375;SDS011;3728;42.266;24.944;2022-12-01T17:39:49;3.03;;;2.50;;
7375;SDS011;3728;42.266;24.944;2022-12-01T17:42:21;1.10;;;1.10;;
7375;SDS011;3728;42.266;24.944;2022-12-01T17:44:50;0.80;;;0.80;;
7375;SDS011;3728;42.266;24.944;2022-12-01T17:47:26;0.70;;;0.70;;
7375;SDS011;3728;42.266;24.944;2022-12-01T17:50:01;0.87;;;0.87;;
7375;SDS011;3728;42.266;24.944;2022-12-01T17:52:30;1.03;;;0.80;;
7375;SDS011;3728;42.266;24.944;2022-12-01T17:55:04;1.33;;;0.80;;
7375;SDS011;3728;42.266;24.944;2022-12-01T17:57:37;0.80;;;0.80;;
7375;SDS011;3728;42.266;24.944;2022-12-01T18:00:15;0.80;;;0.80;;
7375;SDS011;3728;42.266;24.944;2022-12-01T18:03:12;0.87;;;0.87;;
7375;SDS011;3728;42.266;24.944;2022-12-01T18:06:03;1.00;;;0.97;;
7375;SDS011;3728;42.266;24.944;2022-12-01T18:08:33;1.00;;;1.00;;
7375;SDS011;3728;42.266;24.944;2022-12-01T18:11:09;0.97;;;0.97;;
7375;SDS011;3728;42.266;24.944;2022-12-01T18:13:43;1.10;;;1.10;;
7375;SDS011;3728;42.266;24.944;2022-12-01T18:16:33;1.10;;;1.10;;